sensor_id;sensor_type;location;lat;lon;timestamp;P1;durP1;ratioP1;P2;durP2;ratioP2
71106;SDS011;58763;47.982;11.516;2023-01-28T00:00:03;21.70;;;9.93;;
71106;SDS011;58763;47.982;11.516;2023-01-28T00:02:31;23.25;;;11.10;;
71106;SDS011;58763;47.982;11.516;2023-01-28T00:04:57;25.13;;;11.05;;
71106;SDS011;58763;47.982;11.516;2023-01-28T00:07:22;22.58;;;10.48;;
71106;SDS011;58763;47.982;11.516;2023-01-28T00:09:49;24.17;;;11.43;;
71106;SDS011;58763;47.982;11.516;2023-01-28T00:12:14;23.48;;;11.18;;
71106;SDS011;58763;47.982;11.516;2023-01-28T00:14:40;22.85;;;10.95;;
71106;SDS011;58763;47.982;11.516;2023-01-28T00:17:06;22.25;;;10.82;;
71106;SDS011;58763;47.982;11.516;2023-01-28T00:19:31;26.27;;;11.20;;
71106;SDS011;58763;47.982;11.516;2023-01-28T00:21:57;23.15;;;11.05;;
71106;SDS011;58763;47.982;11.516;2023-01-28T00:24:22;25.05;;;11.25;;
71106;SDS011;58763;47.982;11.516;2023-01-28T00:26:48;23.50;;;11.25;;
71106;SDS011;58763;47.982;11.516;2023-01-28T00:29:14;22.20;;;10.50;;
71106;SDS011;58763;47.982;11.516;2023-01-28T00:31:40;25.60;;;11.60;;
71106;SDS011;58763;47.982;11.516;2023-01-28T00:34:06;23.13;;;11.02;;
71106;SDS011;58763;47.982;11.516;2023-01-28T00:36:32;25.27;;;11.63;;
71106;SDS011;58763;47.982;11.516;2023-01-28T00:38:59;27.52;;;11.93;;
71106;SDS011;58763;47.982;11.516;2023-01-28T00:41:26;22.42;;;10.70;;
71106;SDS011;58763;47.982;11.516;2023-01-28T00:43:54;26.20;;;11.70;;
71106;SDS011;58763;47.982;11.516;2023-01-28T00:46:20;27.23;;;12.07;;
71106;SDS011;58763;47.982;11.516;2023-01-28T00:48:46;27.08;;;11.52;;
71106;SDS011;58763;47.982;11.516;2023-01-28T00:51:13;23.98;;;11.13;;
71106;SDS011;58763;47.982;11.516;2023-01-28T00:53:41;27.80;;;12.80;;
71106;SDS011;58763;47.982;11.516;2023-01-28T00:56:08;25.88;;;11.55;;
71106;SDS011;58763;47.982;11.516;2023-01-28T00:58:36;24.50;;;11.48;;
71106;SDS011;58763;47.982;11.516;2023-01-28T01:01:09;24.40;;;11.73;;
71106;SDS011;58763;47.982;11.516;2023-01-28T01:03:37;24.45;;;12.00;;
71106;SDS011;58763;47.982;11.516;2023-01-28T01:06:03;25.77;;;11.60;;
71106;SDS011;58763;47.982;11.516;2023-01-28T01:08:29;26.55;;;12.25;;
71106;SDS011;58763;47.982;11.516;2023-01-28T01:10:59;28.98;;;12.10;;
71106;SDS011;58763;47.982;11.516;2023-01-28T01:13:26;28.25;;;13.32;;
71106;SDS011;58763;47.982;11.516;2023-01-28T01:16:00;27.30;;;12.07;;
71106;SDS011;58763;47.982;11.516;2023-01-28T01:18:26;24.67;;;11.50;;
71106;SDS011;58763;47.982;11.516;2023-01-28T01:20:52;28.42;;;11.90;;
71106;SDS011;58763;47.982;11.516;2023-01-28T01:25:49;27.42;;;12.00;;
71106;SDS011;58763;47.982;11.516;2023-01-28T01:28:16;25.73;;;11.85;;
71106;SDS011;58763;47.982;11.516;2023-01-28T01:30:42;28.42;;;13.07;;
71106;SDS011;58763;47.982;11.516;2023-01-28T01:33:07;27.45;;;12.77;;
71106;SDS011;58763;47.982;11.516;2023-01-28T01:35:33;30.67;;;13.52;;
71106;SDS011;58763;47.982;11.516;2023-01-28T01:37:58;28.27;;;13.05;;
71106;SDS011;58763;47.982;11.516;2023-01-28T01:40:24;28.10;;;12.60;;
71106;SDS011;58763;47.982;11.516;2023-01-28T01:42:49;31.05;;;12.55;;
71106;SDS011;58763;47.982;11.516;2023-01-28T01:45:14;28.80;;;12.15;;
71106;SDS011;58763;47.982;11.516;2023-01-28T01:50:39;26.15;;;12.10;;
71106;SDS011;58763;47.982;11.516;2023-01-28T01:53:15;29.00;;;12.82;;
71106;SDS011;58763;47.982;11.516;2023-01-28T01:55:44;27.02;;;11.77;;
71106;SDS011;58763;47.982;11.516;2023-01-28T01:58:13;27.98;;;12.73;;
71106;SDS011;58763;47.982;11.516;2023-01-28T02:00:41;28.67;;;12.85;;
71106;SDS011;58763;47.982;11.516;2023-01-28T02:03:07;28.05;;;13.18;;
71106;SDS011;58763;47.982;11.516;2023-01-28T02:05:34;26.67;;;13.10;;
71106;SDS011;58763;47.982;11.516;2023-01-28T02:08:00;26.17;;;12.27;;
71106;SDS011;58763;47.982;11.516;2023-01-28T02:10:44;28.00;;;12.32;;
71106;SDS011;58763;47.982;11.516;2023-01-28T02:13:13;27.33;;;11.82;;
71106;SDS011;58763;47.982;11.516;2023-01-28T02:15:40;28.58;;;12.30;;
71106;SDS011;58763;47.982;11.516;2023-01-28T02:18:08;26.13;;;12.48;;
71106;SDS011;58763;47.982;11.516;2023-01-28T02:24:25;29.13;;;12.40;;
71106;SDS011;58763;47.982;11.516;2023-01-28T02:32:15;28.17;;;12.38;;
71106;SDS011;58763;47.982;11.516;2023-01-28T02:34:58;26.10;;;11.93;;
71106;SDS011;58763;47.982;11.516;2023-01-28T02:37:40;25.98;;;11.38;;
71106;SDS011;58763;47.982;11.516;2023-01-28T02:40:15;25.10;;;11.82;;
71106;SDS011;58763;47.982;11.516;2023-01-28T02:42:47;27.05;;;12.48;;
71106;SDS011;58763;47.982;11.516;2023-01-28T02:45:23;27.27;;;12.02;;
71106;SDS011;58763;47.982;11.516;2023-01-28T02:48:11;22.48;;;11.13;;
71106;SDS011;58763;47.982;11.516;2023-01-28T02:50:45;26.75;;;11.95;;
71106;SDS011;58763;47.982;11.516;2023-01-28T02:53:33;23.00;;;11.30;;
71106;SDS011;58763;47.982;11.516;2023-01-28T03:02:41;24.60;;;11.68;;
71106;SDS011;58763;47.982;11.516;2023-01-28T03:05:01;27.55;;;12.20;;
71106;SDS011;58763;47.982;11.516;2023-01-28T03:07:31;25.88;;;11.88;;
71106;SDS011;58763;47.982;11.516;2023-01-28T03:10:01;24.90;;;11.75;;
71106;SDS011;58763;47.982;11.516;2023-01-28T03:12:31;26.00;;;12.00;;
71106;SDS011;58763;47.982;11.516;2023-01-28T03:15:20;25.77;;;12.02;;
71106;SDS011;58763;47.982;11.516;2023-01-28T03:18:16;26.83;;;11.70;;
71106;SDS011;58763;47.982;11.516;2023-01-28T03:21:06;23.05;;;10.13;;
71106;SDS011;58763;47.982;11.516;2023-01-28T03:27:06;25.83;;;11.30;;
71106;SDS011;58763;47.982;11.516;2023-01-28T03:29:58;23.48;;;10.63;;
71106;SDS011;58763;47.982;11.516;2023-01-28T03:32:46;25.08;;;10.85;;
71106;SDS011;58763;47.982;11.516;2023-01-28T03:35:32;24.60;;;10.60;;
71106;SDS011;58763;47.982;11.516;2023-01-28T03:38:18;26.10;;;11.23;;
71106;SDS011;58763;47.982;11.516;2023-01-28T03:40:59;25.15;;;11.10;;
71106;SDS011;58763;47.982;11.516;2023-01-28T03:43:32;24.02;;;11.20;;
71106;SDS011;58763;47.982;11.516;2023-01-28T03:45:58;26.65;;;11.00;;
71106;SDS011;58763;47.982;11.516;2023-01-28T03:48:25;22.85;;;10.82;;
71106;SDS011;58763;47.982;11.516;2023-01-28T03:50:53;24.98;;;11.60;;
71106;SDS011;58763;47.982;11.516;2023-01-28T03:53:21;21.92;;;10.57;;
71106;SDS011;58763;47.982;11.516;2023-01-28T03:55:48;25.58;;;11.63;;
71106;SDS011;58763;47.982;11.516;2023-01-28T03:58:16;26.85;;;11.52;;
71106;SDS011;58763;47.982;11.516;2023-01-28T04:00:43;23.63;;;10.80;;
71106;SDS011;58763;47.982;11.516;2023-01-28T04:03:09;25.42;;;10.27;;
71106;SDS011;58763;47.982;11.516;2023-01-28T04:05:42;21.30;;;10.18;;
71106;SDS011;58763;47.982;11.516;2023-01-28T04:08:10;20.83;;;9.63;;
71106;SDS011;58763;47.982;11.516;2023-01-28T04:10:37;25.15;;;10.20;;
71106;SDS011;58763;47.982;11.516;2023-01-28T04:13:03;24.25;;;10.70;;
71106;SDS011;58763;47.982;11.516;2023-01-28T04:15:30;23.23;;;10.55;;
71106;SDS011;58763;47.982;11.516;2023-01-28T04:17:55;23.17;;;10.82;;
71106;SDS011;58763;47.982;11.516;2023-01-28T04:20:21;26.20;;;11.60;;
71106;SDS011;58763;47.982;11.516;2023-01-28T04:22:46;25.13;;;11.18;;
71106;SDS011;58763;47.982;11.516;2023-01-28T04:25:12;23.90;;;11.05;;
71106;SDS011;58763;47.982;11.516;2023-01-28T04:27:38;23.90;;;11.18;;
71106;SDS011;58763;47.982;11.516;2023-01-28T04:30:03;27.77;;;11.25;;
71106;SDS011;58763;47.982;11.516;2023-01-28T04:32:30;25.13;;;11.02;;
71106;SDS011;58763;47.982;11.516;2023-01-28T04:34:56;22.60;;;9.63;;
71106;SDS011;58763;47.982;11.516;2023-01-28T04:37:21;22.42;;;9.98;;
71106;SDS011;58763;47.982;11.516;2023-01-28T04:39:47;20.92;;;10.02;;
71106;SDS011;58763;47.982;11.516;2023-01-28T04:42:12;25.20;;;10.73;;
71106;SDS011;58763;47.982;11.516;2023-01-28T04:44:38;21.83;;;9.82;;
71106;SDS011;58763;47.982;11.516;2023-01-28T04:47:03;20.48;;;9.07;;
71106;SDS011;58763;47.982;11.516;2023-01-28T04:49:29;20.80;;;9.35;;
71106;SDS011;58763;47.982;11.516;2023-01-28T04:51:54;21.58;;;10.48;;
71106;SDS011;58763;47.982;11.516;2023-01-28T04:54:20;21.17;;;9.88;;
71106;SDS011;58763;47.982;11.516;2023-01-28T04:56:45;21.83;;;10.40;;
71106;SDS011;58763;47.982;11.516;2023-01-28T04:59:11;24.42;;;10.73;;
71106;SDS011;58763;47.982;11.516;2023-01-28T05:01:36;23.35;;;10.15;;
71106;SDS011;58763;47.982;11.516;2023-01-28T05:04:02;23.88;;;10.50;;
71106;SDS011;58763;47.982;11.516;2023-01-28T05:06:30;27.63;;;12.00;;
71106;SDS011;58763;47.982;11.516;2023-01-28T05:08:56;26.23;;;11.00;;
71106;SDS011;58763;47.982;11.516;2023-01-28T05:11:22;23.20;;;10.88;;
71106;SDS011;58763;47.982;11.516;2023-01-28T05:13:48;28.35;;;11.98;;
71106;SDS011;58763;47.982;11.516;2023-01-28T05:16:14;26.85;;;10.95;;
71106;SDS011;58763;47.982;11.516;2023-01-28T05:18:39;24.48;;;11.05;;
71106;SDS011;58763;47.982;11.516;2023-01-28T05:21:05;26.80;;;11.73;;
71106;SDS011;58763;47.982;11.516;2023-01-28T05:23:31;29.33;;;12.07;;
71106;SDS011;58763;47.982;11.516;2023-01-28T05:25:56;26.13;;;11.32;;
71106;SDS011;58763;47.982;11.516;2023-01-28T05:28:22;24.70;;;10.93;;
71106;SDS011;58763;47.982;11.516;2023-01-28T05:30:47;28.60;;;12.18;;
71106;SDS011;58763;47.982;11.516;2023-01-28T05:33:13;28.98;;;12.68;;
71106;SDS011;58763;47.982;11.516;2023-01-28T05:35:38;26.13;;;11.38;;
71106;SDS011;58763;47.982;11.516;2023-01-28T05:38:04;25.70;;;12.13;;
71106;SDS011;58763;47.982;11.516;2023-01-28T05:40:30;26.98;;;12.13;;
71106;SDS011;58763;47.982;11.516;2023-01-28T05:42:55;29.00;;;12.25;;
71106;SDS011;58763;47.982;11.516;2023-01-28T05:45:21;26.35;;;11.68;;
71106;SDS011;58763;47.982;11.516;2023-01-28T05:47:46;25.95;;;11.55;;
71106;SDS011;58763;47.982;11.516;2023-01-28T05:50:13;27.25;;;11.50;;
71106;SDS011;58763;47.982;11.516;2023-01-28T05:52:38;27.27;;;12.13;;
71106;SDS011;58763;47.982;11.516;2023-01-28T05:55:04;29.90;;;12.32;;
71106;SDS011;58763;47.982;11.516;2023-01-28T05:57:30;23.38;;;11.07;;
71106;SDS011;58763;47.982;11.516;2023-01-28T05:59:56;30.10;;;12.50;;
71106;SDS011;58763;47.982;11.516;2023-01-28T06:02:22;25.67;;;12.05;;
71106;SDS011;58763;47.982;11.516;2023-01-28T06:04:47;27.63;;;11.10;;
71106;SDS011;58763;47.982;11.516;2023-01-28T06:07:13;27.85;;;12.02;;
71106;SDS011;58763;47.982;11.516;2023-01-28T06:09:40;25.70;;;11.80;;
71106;SDS011;58763;47.982;11.516;2023-01-28T06:12:05;28.77;;;12.15;;
71106;SDS011;58763;47.982;11.516;2023-01-28T06:14:31;23.92;;;10.77;;
71106;SDS011;58763;47.982;11.516;2023-01-28T06:16:58;30.50;;;11.68;;
71106;SDS011;58763;47.982;11.516;2023-01-28T06:19:24;27.17;;;11.85;;
71106;SDS011;58763;47.982;11.516;2023-01-28T06:21:50;26.73;;;11.95;;
71106;SDS011;58763;47.982;11.516;2023-01-28T06:24:16;32.20;;;12.23;;
71106;SDS011;58763;47.982;11.516;2023-01-28T06:26:41;27.15;;;11.75;;
71106;SDS011;58763;47.982;11.516;2023-01-28T06:29:07;27.63;;;11.68;;
71106;SDS011;58763;47.982;11.516;2023-01-28T06:31:33;28.48;;;11.55;;
71106;SDS011;58763;47.982;11.516;2023-01-28T06:33:58;25.55;;;11.48;;
71106;SDS011;58763;47.982;11.516;2023-01-28T06:36:24;28.38;;;12.20;;
71106;SDS011;58763;47.982;11.516;2023-01-28T06:38:50;25.67;;;11.45;;
71106;SDS011;58763;47.982;11.516;2023-01-28T06:41:15;24.85;;;11.07;;
71106;SDS011;58763;47.982;11.516;2023-01-28T06:43:41;30.60;;;12.23;;
71106;SDS011;58763;47.982;11.516;2023-01-28T06:46:06;27.50;;;11.80;;
71106;SDS011;58763;47.982;11.516;2023-01-28T06:48:32;29.50;;;11.52;;
71106;SDS011;58763;47.982;11.516;2023-01-28T06:50:57;30.42;;;11.50;;
71106;SDS011;58763;47.982;11.516;2023-01-28T06:53:23;28.42;;;12.40;;
71106;SDS011;58763;47.982;11.516;2023-01-28T06:55:48;31.45;;;12.63;;
71106;SDS011;58763;47.982;11.516;2023-01-28T06:58:14;28.40;;;11.63;;
71106;SDS011;58763;47.982;11.516;2023-01-28T07:00:39;31.42;;;12.40;;
71106;SDS011;58763;47.982;11.516;2023-01-28T07:03:05;28.83;;;12.30;;
71106;SDS011;58763;47.982;11.516;2023-01-28T07:05:31;29.88;;;12.20;;
71106;SDS011;58763;47.982;11.516;2023-01-28T07:07:56;29.30;;;12.95;;
71106;SDS011;58763;47.982;11.516;2023-01-28T07:10:22;27.75;;;12.02;;
71106;SDS011;58763;47.982;11.516;2023-01-28T07:12:48;32.67;;;13.23;;
71106;SDS011;58763;47.982;11.516;2023-01-28T07:15:13;29.75;;;11.77;;
71106;SDS011;58763;47.982;11.516;2023-01-28T07:17:39;28.10;;;11.77;;
71106;SDS011;58763;47.982;11.516;2023-01-28T07:20:06;32.83;;;12.82;;
71106;SDS011;58763;47.982;11.516;2023-01-28T07:22:33;29.95;;;11.90;;
71106;SDS011;58763;47.982;11.516;2023-01-28T07:24:58;28.60;;;11.85;;
71106;SDS011;58763;47.982;11.516;2023-01-28T07:27:25;29.35;;;11.90;;
71106;SDS011;58763;47.982;11.516;2023-01-28T07:29:51;32.20;;;12.90;;
71106;SDS011;58763;47.982;11.516;2023-01-28T07:32:17;31.60;;;12.45;;
71106;SDS011;58763;47.982;11.516;2023-01-28T07:34:42;26.42;;;11.73;;
71106;SDS011;58763;47.982;11.516;2023-01-28T07:37:08;28.20;;;11.77;;
71106;SDS011;58763;47.982;11.516;2023-01-28T07:39:34;27.38;;;11.68;;
71106;SDS011;58763;47.982;11.516;2023-01-28T07:42:00;31.50;;;12.45;;
71106;SDS011;58763;47.982;11.516;2023-01-28T07:44:26;30.15;;;11.02;;
71106;SDS011;58763;47.982;11.516;2023-01-28T07:46:51;27.98;;;11.68;;
71106;SDS011;58763;47.982;11.516;2023-01-28T07:49:18;26.33;;;11.32;;
71106;SDS011;58763;47.982;11.516;2023-01-28T07:51:43;30.88;;;12.80;;
71106;SDS011;58763;47.982;11.516;2023-01-28T07:54:11;27.00;;;11.45;;
71106;SDS011;58763;47.982;11.516;2023-01-28T07:56:37;28.90;;;11.93;;
71106;SDS011;58763;47.982;11.516;2023-01-28T07:59:03;27.17;;;11.90;;
71106;SDS011;58763;47.982;11.516;2023-01-28T08:01:29;26.98;;;11.63;;
71106;SDS011;58763;47.982;11.516;2023-01-28T08:03:55;27.73;;;12.00;;
71106;SDS011;58763;47.982;11.516;2023-01-28T08:06:21;29.33;;;12.93;;
71106;SDS011;58763;47.982;11.516;2023-01-28T08:08:46;28.08;;;12.20;;
71106;SDS011;58763;47.982;11.516;2023-01-28T08:11:12;24.77;;;11.35;;
71106;SDS011;58763;47.982;11.516;2023-01-28T08:13:38;27.83;;;11.60;;
71106;SDS011;58763;47.982;11.516;2023-01-28T08:16:04;24.42;;;10.40;;
71106;SDS011;58763;47.982;11.516;2023-01-28T08:18:30;28.20;;;12.15;;
71106;SDS011;58763;47.982;11.516;2023-01-28T08:20:56;23.75;;;10.50;;
71106;SDS011;58763;47.982;11.516;2023-01-28T08:23:23;27.73;;;10.98;;
71106;SDS011;58763;47.982;11.516;2023-01-28T08:25:51;24.25;;;10.25;;
71106;SDS011;58763;47.982;11.516;2023-01-28T08:28:18;26.38;;;11.52;;
71106;SDS011;58763;47.982;11.516;2023-01-28T08:30:44;25.38;;;10.75;;
71106;SDS011;58763;47.982;11.516;2023-01-28T08:33:11;25.92;;;11.15;;
71106;SDS011;58763;47.982;11.516;2023-01-28T08:35:38;23.83;;;10.30;;
71106;SDS011;58763;47.982;11.516;2023-01-28T08:38:04;21.90;;;9.68;;
71106;SDS011;58763;47.982;11.516;2023-01-28T08:40:31;25.88;;;11.15;;
71106;SDS011;58763;47.982;11.516;2023-01-28T08:42:58;25.25;;;10.95;;
71106;SDS011;58763;47.982;11.516;2023-01-28T08:45:24;26.83;;;10.98;;
71106;SDS011;58763;47.982;11.516;2023-01-28T08:47:55;27.40;;;11.55;;
71106;SDS011;58763;47.982;11.516;2023-01-28T08:50:25;23.63;;;10.73;;
71106;SDS011;58763;47.982;11.516;2023-01-28T08:52:57;27.55;;;12.40;;
71106;SDS011;58763;47.982;11.516;2023-01-28T08:57:50;28.98;;;12.15;;
71106;SDS011;58763;47.982;11.516;2023-01-28T09:00:16;25.98;;;11.77;;
71106;SDS011;58763;47.982;11.516;2023-01-28T09:02:41;28.48;;;12.15;;
71106;SDS011;58763;47.982;11.516;2023-01-28T09:05:07;28.27;;;11.63;;
71106;SDS011;58763;47.982;11.516;2023-01-28T09:07:33;27.52;;;11.90;;
71106;SDS011;58763;47.982;11.516;2023-01-28T09:09:59;26.95;;;11.30;;
71106;SDS011;58763;47.982;11.516;2023-01-28T09:12:25;27.77;;;11.18;;
71106;SDS011;58763;47.982;11.516;2023-01-28T09:14:51;28.48;;;11.35;;
71106;SDS011;58763;47.982;11.516;2023-01-28T09:17:17;26.23;;;11.38;;
71106;SDS011;58763;47.982;11.516;2023-01-28T09:19:43;25.40;;;11.15;;
71106;SDS011;58763;47.982;11.516;2023-01-28T09:22:08;24.35;;;11.50;;
71106;SDS011;58763;47.982;11.516;2023-01-28T09:24:34;25.98;;;11.80;;
71106;SDS011;58763;47.982;11.516;2023-01-28T09:26:59;24.95;;;11.48;;
71106;SDS011;58763;47.982;11.516;2023-01-28T09:29:25;26.23;;;11.50;;
71106;SDS011;58763;47.982;11.516;2023-01-28T09:31:50;26.27;;;12.32;;
71106;SDS011;58763;47.982;11.516;2023-01-28T09:34:16;28.30;;;11.70;;
71106;SDS011;58763;47.982;11.516;2023-01-28T09:36:41;28.00;;;11.95;;
71106;SDS011;58763;47.982;11.516;2023-01-28T09:39:13;23.70;;;11.38;;
71106;SDS011;58763;47.982;11.516;2023-01-28T09:46:47;25.35;;;11.57;;
71106;SDS011;58763;47.982;11.516;2023-01-28T09:51:59;25.70;;;11.20;;
71106;SDS011;58763;47.982;11.516;2023-01-28T09:56:55;25.55;;;11.52;;
71106;SDS011;58763;47.982;11.516;2023-01-28T09:59:44;21.00;;;10.23;;
71106;SDS011;58763;47.982;11.516;2023-01-28T10:05:20;26.65;;;10.80;;
71106;SDS011;58763;47.982;11.516;2023-01-28T10:08:59;21.88;;;10.75;;
71106;SDS011;58763;47.982;11.516;2023-01-28T10:16:42;24.00;;;10.55;;
71106;SDS011;58763;47.982;11.516;2023-01-28T10:19:23;22.65;;;9.70;;
71106;SDS011;58763;47.982;11.516;2023-01-28T10:22:06;24.67;;;10.63;;
71106;SDS011;58763;47.982;11.516;2023-01-28T10:24:43;22.23;;;10.38;;
71106;SDS011;58763;47.982;11.516;2023-01-28T10:27:18;23.15;;;10.23;;
71106;SDS011;58763;47.982;11.516;2023-01-28T10:29:46;27.02;;;10.93;;
71106;SDS011;58763;47.982;11.516;2023-01-28T10:32:31;24.75;;;10.85;;
71106;SDS011;58763;47.982;11.516;2023-01-28T10:35:00;20.60;;;9.85;;
71106;SDS011;58763;47.982;11.516;2023-01-28T10:37:28;21.35;;;10.10;;
71106;SDS011;58763;47.982;11.516;2023-01-28T10:39:58;22.63;;;9.88;;
71106;SDS011;58763;47.982;11.516;2023-01-28T10:44:54;21.33;;;9.13;;
71106;SDS011;58763;47.982;11.516;2023-01-28T10:47:28;21.13;;;10.32;;
71106;SDS011;58763;47.982;11.516;2023-01-28T10:50:16;21.17;;;10.00;;
71106;SDS011;58763;47.982;11.516;2023-01-28T10:55:53;20.02;;;9.07;;
71106;SDS011;58763;47.982;11.516;2023-01-28T10:58:24;18.80;;;8.75;;
71106;SDS011;58763;47.982;11.516;2023-01-28T11:00:53;18.40;;;8.15;;
71106;SDS011;58763;47.982;11.516;2023-01-28T11:03:23;16.83;;;8.07;;
71106;SDS011;58763;47.982;11.516;2023-01-28T11:05:54;19.23;;;8.52;;
71106;SDS011;58763;47.982;11.516;2023-01-28T11:08:20;15.85;;;8.15;;
71106;SDS011;58763;47.982;11.516;2023-01-28T11:10:48;18.50;;;8.38;;
71106;SDS011;58763;47.982;11.516;2023-01-28T11:13:19;19.27;;;8.82;;
71106;SDS011;58763;47.982;11.516;2023-01-28T11:15:47;20.50;;;9.43;;
71106;SDS011;58763;47.982;11.516;2023-01-28T11:18:27;19.95;;;8.88;;
71106;SDS011;58763;47.982;11.516;2023-01-28T11:21:00;19.65;;;9.15;;
71106;SDS011;58763;47.982;11.516;2023-01-28T11:23:30;16.60;;;8.20;;
71106;SDS011;58763;47.982;11.516;2023-01-28T11:25:59;19.50;;;8.73;;
71106;SDS011;58763;47.982;11.516;2023-01-28T11:28:26;17.83;;;8.52;;
71106;SDS011;58763;47.982;11.516;2023-01-28T11:30:52;16.13;;;7.78;;
71106;SDS011;58763;47.982;11.516;2023-01-28T11:33:37;17.67;;;7.93;;
71106;SDS011;58763;47.982;11.516;2023-01-28T11:36:12;18.02;;;8.80;;
71106;SDS011;58763;47.982;11.516;2023-01-28T11:38:47;19.75;;;9.63;;
71106;SDS011;58763;47.982;11.516;2023-01-28T11:41:12;21.27;;;10.57;;
71106;SDS011;58763;47.982;11.516;2023-01-28T11:43:40;17.33;;;8.23;;
71106;SDS011;58763;47.982;11.516;2023-01-28T11:46:16;17.17;;;8.50;;
71106;SDS011;58763;47.982;11.516;2023-01-28T11:49:26;21.67;;;11.00;;
71106;SDS011;58763;47.982;11.516;2023-01-28T11:52:26;23.20;;;12.93;;
71106;SDS011;58763;47.982;11.516;2023-01-28T11:55:21;20.42;;;11.65;;
71106;SDS011;58763;47.982;11.516;2023-01-28T12:06:21;16.88;;;8.18;;
71106;SDS011;58763;47.982;11.516;2023-01-28T12:25:48;18.42;;;9.00;;
71106;SDS011;58763;47.982;11.516;2023-01-28T12:31:14;19.75;;;8.63;;
71106;SDS011;58763;47.982;11.516;2023-01-28T12:36:43;16.30;;;8.30;;
71106;SDS011;58763;47.982;11.516;2023-01-28T12:44:55;17.63;;;9.05;;
71106;SDS011;58763;47.982;11.516;2023-01-28T12:47:36;21.70;;;9.63;;
71106;SDS011;58763;47.982;11.516;2023-01-28T12:50:12;20.02;;;9.27;;
71106;SDS011;58763;47.982;11.516;2023-01-28T12:52:43;19.15;;;9.60;;
71106;SDS011;58763;47.982;11.516;2023-01-28T12:58:04;24.90;;;10.82;;
71106;SDS011;58763;47.982;11.516;2023-01-28T13:00:32;42.45;;;20.08;;
71106;SDS011;58763;47.982;11.516;2023-01-28T13:05:47;35.58;;;19.08;;
71106;SDS011;58763;47.982;11.516;2023-01-28T13:08:16;29.80;;;14.10;;
71106;SDS011;58763;47.982;11.516;2023-01-28T13:10:47;33.47;;;16.00;;
71106;SDS011;58763;47.982;11.516;2023-01-28T13:13:33;33.78;;;16.00;;
71106;SDS011;58763;47.982;11.516;2023-01-28T13:16:01;27.30;;;13.60;;
71106;SDS011;58763;47.982;11.516;2023-01-28T13:21:08;21.35;;;11.30;;
71106;SDS011;58763;47.982;11.516;2023-01-28T13:23:45;20.55;;;10.05;;
71106;SDS011;58763;47.982;11.516;2023-01-28T13:28:45;28.45;;;16.48;;
71106;SDS011;58763;47.982;11.516;2023-01-28T13:31:12;21.30;;;10.77;;
71106;SDS011;58763;47.982;11.516;2023-01-28T13:34:04;20.00;;;9.57;;
71106;SDS011;58763;47.982;11.516;2023-01-28T13:36:30;19.60;;;8.70;;
71106;SDS011;58763;47.982;11.516;2023-01-28T13:38:59;17.15;;;9.15;;
71106;SDS011;58763;47.982;11.516;2023-01-28T13:41:35;18.38;;;9.77;;
71106;SDS011;58763;47.982;11.516;2023-01-28T13:44:02;17.73;;;9.95;;
71106;SDS011;58763;47.982;11.516;2023-01-28T13:46:29;17.83;;;9.63;;
71106;SDS011;58763;47.982;11.516;2023-01-28T13:48:56;17.27;;;8.60;;
71106;SDS011;58763;47.982;11.516;2023-01-28T13:51:24;17.95;;;8.90;;
71106;SDS011;58763;47.982;11.516;2023-01-28T13:59:43;17.55;;;7.95;;
71106;SDS011;58763;47.982;11.516;2023-01-28T14:18:52;20.40;;;9.05;;
71106;SDS011;58763;47.982;11.516;2023-01-28T14:23:51;17.33;;;8.23;;
71106;SDS011;58763;47.982;11.516;2023-01-28T14:32:27;18.55;;;8.75;;
71106;SDS011;58763;47.982;11.516;2023-01-28T14:34:55;17.77;;;8.75;;
71106;SDS011;58763;47.982;11.516;2023-01-28T14:37:24;20.08;;;9.90;;
71106;SDS011;58763;47.982;11.516;2023-01-28T14:40:01;19.23;;;9.97;;
71106;SDS011;58763;47.982;11.516;2023-01-28T14:42:36;19.00;;;9.73;;
71106;SDS011;58763;47.982;11.516;2023-01-28T14:58:24;20.45;;;10.70;;
71106;SDS011;58763;47.982;11.516;2023-01-28T15:00:57;20.92;;;10.55;;
71106;SDS011;58763;47.982;11.516;2023-01-28T15:03:24;20.73;;;10.25;;
71106;SDS011;58763;47.982;11.516;2023-01-28T15:06:00;18.27;;;10.18;;
71106;SDS011;58763;47.982;11.516;2023-01-28T15:08:27;22.77;;;10.55;;
71106;SDS011;58763;47.982;11.516;2023-01-28T15:10:53;21.17;;;10.77;;
71106;SDS011;58763;47.982;11.516;2023-01-28T15:13:25;21.95;;;11.20;;
71106;SDS011;58763;47.982;11.516;2023-01-28T15:15:54;21.58;;;11.13;;
71106;SDS011;58763;47.982;11.516;2023-01-28T15:18:28;22.58;;;10.65;;
71106;SDS011;58763;47.982;11.516;2023-01-28T15:20:56;20.33;;;10.48;;
71106;SDS011;58763;47.982;11.516;2023-01-28T15:23:27;21.95;;;10.52;;
71106;SDS011;58763;47.982;11.516;2023-01-28T15:25:57;19.50;;;10.05;;
71106;SDS011;58763;47.982;11.516;2023-01-28T15:28:27;21.58;;;11.68;;
71106;SDS011;58763;47.982;11.516;2023-01-28T15:30:56;24.58;;;12.65;;
71106;SDS011;58763;47.982;11.516;2023-01-28T15:33:23;36.88;;;16.77;;
71106;SDS011;58763;47.982;11.516;2023-01-28T15:35:50;67.82;;;25.88;;
71106;SDS011;58763;47.982;11.516;2023-01-28T15:38:18;156.20;;;50.45;;
71106;SDS011;58763;47.982;11.516;2023-01-28T15:40:45;141.18;;;44.75;;
71106;SDS011;58763;47.982;11.516;2023-01-28T15:43:18;340.63;;;91.88;;
71106;SDS011;58763;47.982;11.516;2023-01-28T15:46:03;259.25;;;76.40;;
71106;SDS011;58763;47.982;11.516;2023-01-28T15:48:35;363.58;;;99.55;;
71106;SDS011;58763;47.982;11.516;2023-01-28T15:51:05;254.48;;;77.43;;
71106;SDS011;58763;47.982;11.516;2023-01-28T15:53:34;86.75;;;38.13;;
71106;SDS011;58763;47.982;11.516;2023-01-28T15:56:09;55.63;;;30.17;;
71106;SDS011;58763;47.982;11.516;2023-01-28T15:58:36;30.33;;;16.55;;
71106;SDS011;58763;47.982;11.516;2023-01-28T16:03:32;35.90;;;16.60;;
71106;SDS011;58763;47.982;11.516;2023-01-28T16:06:01;30.05;;;14.82;;
71106;SDS011;58763;47.982;11.516;2023-01-28T16:08:37;30.50;;;17.45;;
71106;SDS011;58763;47.982;11.516;2023-01-28T16:11:06;38.83;;;21.20;;
71106;SDS011;58763;47.982;11.516;2023-01-28T16:13:33;34.53;;;17.33;;
71106;SDS011;58763;47.982;11.516;2023-01-28T16:16:00;33.58;;;15.63;;
71106;SDS011;58763;47.982;11.516;2023-01-28T16:18:29;45.75;;;18.67;;
71106;SDS011;58763;47.982;11.516;2023-01-28T16:21:18;29.05;;;13.43;;
71106;SDS011;58763;47.982;11.516;2023-01-28T16:24:06;28.55;;;13.10;;
71106;SDS011;58763;47.982;11.516;2023-01-28T16:26:54;26.92;;;12.23;;
71106;SDS011;58763;47.982;11.516;2023-01-28T16:29:21;24.50;;;12.32;;
71106;SDS011;58763;47.982;11.516;2023-01-28T16:31:48;31.10;;;15.70;;
71106;SDS011;58763;47.982;11.516;2023-01-28T16:34:13;31.30;;;16.45;;
71106;SDS011;58763;47.982;11.516;2023-01-28T16:36:39;28.83;;;15.18;;
71106;SDS011;58763;47.982;11.516;2023-01-28T16:39:04;25.13;;;11.93;;
71106;SDS011;58763;47.982;11.516;2023-01-28T16:41:31;22.55;;;10.82;;
71106;SDS011;58763;47.982;11.516;2023-01-28T16:44:02;21.67;;;11.35;;
71106;SDS011;58763;47.982;11.516;2023-01-28T16:46:30;26.40;;;11.88;;
71106;SDS011;58763;47.982;11.516;2023-01-28T16:48:57;25.30;;;12.00;;